Time;durP1;ratioP1;P1;durP2;ratioP2;P2;SDS_P1;SDS_P2;PMS_P1;PMS_P2;Temp;Humidity;BMP_temperature;BMP_pressure;BME280_temperature;BME280_humidity;BME280_pressure;Samples;Min_cycle;Max_cycle;Signal;HPM_P1;HPM_P2
2023/01/07 00:00:16;;;;;;;52.25;26.88;;;8.20;99.90;;;;;;6375537;22;20060;-96
2023/01/07 00:02:41;;;;;;;54.15;28.02;;;8.10;99.90;;;;;;6376679;22;20174;-96
2023/01/07 00:05:08;;;;;;;52.58;28.10;;;8.30;99.90;;;;;;6375973;22;20044;-96
2023/01/07 00:07:33;;;;;;;52.13;28.02;;;8.30;99.90;;;;;;6377420;22;20043;-96
2023/01/07 00:09:59;;;;;;;52.03;27.13;;;8.40;99.90;;;;;;6375912;22;20017;-96
2023/01/07 00:12:25;;;;;;;51.55;28.55;;;8.30;99.90;;;;;;6376372;22;20056;-96
2023/01/07 00:14:50;;;;;;;53.50;28.98;;;8.40;99.90;;;;;;6375803;22;20017;-95
2023/01/07 00:17:19;;;;;;;60.38;29.77;;;8.60;99.90;;;;;;6376939;22;20471;-96
2023/01/07 00:19:44;;;;;;;61.90;29.13;;;8.50;99.90;;;;;;6375833;22;20013;-96
2023/01/07 00:22:10;;;;;;;59.00;29.98;;;8.70;99.90;;;;;;6376142;22;20426;-96
2023/01/07 00:24:38;;;;;;;56.05;30.58;;;8.90;99.90;;;;;;6377549;22;20447;-96
2023/01/07 00:27:04;;;;;;;59.17;30.95;;;8.70;99.90;;;;;;6374989;22;20452;-96
2023/01/07 00:29:29;;;;;;;60.47;32.00;;;8.90;99.90;;;;;;6375735;22;20056;-96
2023/01/07 00:31:55;;;;;;;57.72;31.85;;;8.80;99.90;;;;;;6375810;22;20037;-96
2023/01/07 00:34:22;;;;;;;61.20;31.17;;;8.80;99.90;;;;;;6375112;22;20426;-96
2023/01/07 00:36:48;;;;;;;53.75;29.65;;;9.00;99.90;;;;;;6379571;22;20028;-96
2023/01/07 00:39:17;;;;;;;58.88;31.15;;;8.90;99.90;;;;;;6377666;22;20113;-96
2023/01/07 00:42:53;;;;;;;61.40;32.35;;;8.90;99.90;;;;;;6375461;22;20040;-96
2023/01/07 00:44:32;;;;;;;53.80;30.30;;;9.10;99.90;;;;;;6402030;22;20053;-96
2023/01/07 00:46:58;;;;;;;60.88;30.67;;;9.10;99.90;;;;;;6374789;22;20048;-96
2023/01/07 00:49:25;;;;;;;54.90;29.80;;;9.10;99.90;;;;;;6375084;22;20092;-96
2023/01/07 00:51:51;;;;;;;61.47;31.83;;;9.20;99.90;;;;;;6375637;22;20021;-96
2023/01/07 00:54:17;;;;;;;54.90;30.15;;;9.20;99.90;;;;;;6380034;22;20042;-96
2023/01/07 00:56:43;;;;;;;64.05;31.00;;;9.20;99.90;;;;;;6378979;22;20021;-96
2023/01/07 00:59:09;;;;;;;55.08;28.95;;;9.10;99.90;;;;;;6378168;22;20017;-96
2023/01/07 01:01:35;;;;;;;50.75;27.70;;;9.30;99.90;;;;;;6376257;22;20021;-96
2023/01/07 01:04:01;;;;;;;51.20;27.77;;;9.20;99.90;;;;;;6374591;22;20018;-96
2023/01/07 01:06:27;;;;;;;56.03;27.73;;;9.20;99.90;;;;;;6376487;22;20017;-96
2023/01/07 01:08:55;;;;;;;58.17;28.67;;;9.30;99.90;;;;;;6375626;22;20056;-96
2023/01/07 01:11:21;;;;;;;51.85;26.67;;;9.30;99.90;;;;;;6376463;22;20017;-96
2023/01/07 01:13:49;;;;;;;44.88;25.10;;;9.40;99.90;;;;;;6374734;22;20093;-95
2023/01/07 01:16:16;;;;;;;48.90;25.98;;;9.40;99.90;;;;;;6374723;22;20017;-96
2023/01/07 01:18:43;;;;;;;49.55;26.42;;;9.50;99.90;;;;;;6375757;22;20062;-96
2023/01/07 01:21:11;;;;;;;50.83;26.15;;;9.40;99.90;;;;;;6375710;22;20029;-96
2023/01/07 01:23:38;;;;;;;46.10;25.05;;;9.50;99.90;;;;;;6375019;22;20521;-95
2023/01/07 01:26:06;;;;;;;46.63;25.02;;;9.50;99.90;;;;;;6375423;22;20066;-95
2023/01/07 01:28:33;;;;;;;44.63;24.70;;;9.70;99.90;;;;;;6375383;22;20059;-96
2023/01/07 01:30:59;;;;;;;47.72;25.42;;;9.70;99.90;;;;;;6374366;22;20020;-95
2023/01/07 01:33:24;;;;;;;46.67;24.73;;;9.70;99.90;;;;;;6374724;22;20017;-96
2023/01/07 01:35:50;;;;;;;50.08;26.70;;;9.70;99.90;;;;;;6375378;22;20376;-95
2023/01/07 01:38:16;;;;;;;46.72;25.88;;;9.70;99.90;;;;;;6374553;22;20025;-96
2023/01/07 01:40:41;;;;;;;44.92;23.92;;;9.60;99.90;;;;;;6375183;22;20030;-95
2023/01/07 01:43:28;;;;;;;46.47;24.48;;;9.60;99.90;;;;;;6374873;22;20013;-95
2023/01/07 01:45:55;;;;;;;49.95;25.85;;;9.70;99.90;;;;;;6373587;22;20510;-96
2023/01/07 01:48:21;;;;;;;47.67;25.92;;;9.70;99.90;;;;;;6374598;22;20441;-95
2023/01/07 01:50:47;;;;;;;40.28;23.88;;;9.70;99.90;;;;;;6374481;22;20021;-95
2023/01/07 01:53:19;;;;;;;45.67;25.50;;;9.70;99.90;;;;;;6374655;22;20017;-95
2023/01/07 01:55:49;;;;;;;44.88;24.95;;;9.70;99.90;;;;;;6374479;22;20013;-95
2023/01/07 01:58:28;;;;;;;44.28;24.77;;;9.70;99.90;;;;;;6374138;22;20013;-95
2023/01/07 02:00:54;;;;;;;44.38;24.80;;;9.70;99.90;;;;;;6374182;22;20016;-95
2023/01/07 02:03:24;;;;;;;36.75;22.85;;;9.80;99.90;;;;;;6375358;22;20021;-96
2023/01/07 02:05:50;;;;;;;39.78;23.85;;;9.80;99.90;;;;;;6373135;22;20052;-95
2023/01/07 02:08:20;;;;;;;47.60;25.15;;;9.90;99.90;;;;;;6375004;22;20017;-95
2023/01/07 02:10:47;;;;;;;46.35;24.92;;;10.00;99.90;;;;;;6373998;22;20068;-94
2023/01/07 02:13:31;;;;;;;43.80;24.55;;;9.80;99.90;;;;;;6374064;22;20048;-95
2023/01/07 02:16:13;;;;;;;39.90;24.00;;;9.90;99.90;;;;;;6375050;22;20022;-95
2023/01/07 02:18:45;;;;;;;44.65;25.63;;;10.00;99.90;;;;;;6375083;22;20430;-95
2023/01/07 02:21:26;;;;;;;44.72;26.33;;;9.90;99.90;;;;;;6374175;22;20020;-95
2023/01/07 02:24:13;;;;;;;46.67;27.08;;;9.90;99.90;;;;;;6374162;22;20044;-95
2023/01/07 02:26:49;;;;;;;45.08;25.60;;;10.00;99.90;;;;;;6374317;22;20056;-94
2023/01/07 02:29:16;;;;;;;38.20;23.38;;;9.90;99.90;;;;;;6373751;22;20061;-95
2023/01/07 02:32:05;;;;;;;39.38;23.60;;;10.00;99.90;;;;;;6374987;22;20379;-96
2023/01/07 02:34:42;;;;;;;41.55;25.08;;;10.00;99.90;;;;;;6374013;22;20017;-95
2023/01/07 02:37:27;;;;;;;41.42;24.25;;;10.10;99.90;;;;;;6374422;22;20014;-94
2023/01/07 02:39:59;;;;;;;34.70;24.20;;;10.10;99.90;;;;;;6374146;22;20021;-96
2023/01/07 02:42:36;;;;;;;38.17;24.88;;;10.10;99.90;;;;;;6373887;22;20017;-94
2023/01/07 02:45:12;;;;;;;43.22;25.88;;;10.10;99.90;;;;;;6374274;22;20013;-95
2023/01/07 02:47:43;;;;;;;44.13;26.33;;;10.00;99.90;;;;;;6373488;22;20015;-95
2023/01/07 02:50:09;;;;;;;45.50;27.40;;;10.20;99.90;;;;;;6369061;22;20079;-95
2023/01/07 02:52:35;;;;;;;35.60;24.13;;;10.00;99.90;;;;;;6369509;22;20018;-96
2023/01/07 02:55:06;;;;;;;39.03;26.17;;;10.00;99.90;;;;;;6368378;22;20025;-94
2023/01/07 02:57:39;;;;;;;42.42;25.50;;;10.10;99.90;;;;;;6368442;22;20018;-94
2023/01/07 03:00:25;;;;;;;41.47;25.15;;;10.10;99.90;;;;;;6369273;22;20062;-94
2023/01/07 03:03:17;;;;;;;35.38;24.73;;;10.00;99.90;;;;;;6370417;22;20017;-94
2023/01/07 03:06:03;;;;;;;36.70;24.80;;;10.10;99.90;;;;;;6371374;22;20013;-95
2023/01/07 03:08:42;;;;;;;37.90;26.15;;;10.20;99.90;;;;;;6370451;22;20283;-95
2023/01/07 03:11:10;;;;;;;34.72;24.80;;;10.10;99.90;;;;;;6371047;22;20018;-95
2023/01/07 03:13:42;;;;;;;33.17;24.00;;;10.10;99.90;;;;;;6370360;22;20346;-95
2023/01/07 03:16:17;;;;;;;31.65;24.10;;;10.20;99.90;;;;;;6370565;22;20068;-94
2023/01/07 03:18:49;;;;;;;31.48;23.60;;;10.10;99.90;;;;;;6370542;22;20073;-96
2023/01/07 03:21:18;;;;;;;32.72;23.98;;;10.20;99.90;;;;;;6371724;22;20021;-94
2023/01/07 03:23:49;;;;;;;33.03;24.95;;;10.10;99.90;;;;;;6369894;22;20010;-94
2023/01/07 03:26:20;;;;;;;32.92;25.25;;;10.10;99.90;;;;;;6371314;22;20006;-94
2023/01/07 03:28:48;;;;;;;29.65;24.85;;;10.20;99.90;;;;;;6369904;22;20442;-94
2023/01/07 03:31:14;;;;;;;31.92;24.98;;;10.10;99.90;;;;;;6370738;22;20014;-94
2023/01/07 03:34:00;;;;;;;34.40;25.88;;;10.20;99.90;;;;;;6371326;22;20470;-94
2023/01/07 03:36:33;;;;;;;31.67;23.60;;;10.20;99.90;;;;;;6370716;22;20013;-94
2023/01/07 03:38:59;;;;;;;30.75;25.88;;;10.10;99.90;;;;;;6369948;22;20461;-95
2023/01/07 03:44:10;;;;;;;37.72;28.10;;;10.10;99.90;;;;;;6396471;22;20051;-94
2023/01/07 03:46:37;;;;;;;33.67;24.75;;;10.20;99.90;;;;;;6371111;22;20014;-95
2023/01/07 03:49:03;;;;;;;31.35;25.95;;;10.20;99.90;;;;;;6370392;22;20013;-95
2023/01/07 03:51:29;;;;;;;31.05;25.40;;;10.20;99.90;;;;;;6370105;22;20022;-94
2023/01/07 03:53:57;;;;;;;26.38;20.77;;;10.20;99.90;;;;;;6370574;22;20089;-95
2023/01/07 03:56:23;;;;;;;26.45;22.35;;;10.10;99.90;;;;;;6371674;22;20101;-95
2023/01/07 03:58:48;;;;;;;26.50;21.92;;;10.30;99.90;;;;;;6368651;22;20060;-95
2023/01/07 04:01:14;;;;;;;27.15;21.88;;;10.30;99.90;;;;;;6371182;22;20056;-95
2023/01/07 04:03:40;;;;;;;28.45;22.40;;;10.30;99.90;;;;;;6370648;22;20069;-95
2023/01/07 04:06:06;;;;;;;25.13;21.05;;;10.30;99.90;;;;;;6369912;22;20018;-94
2023/01/07 04:08:31;;;;;;;23.00;20.10;;;10.30;99.90;;;;;;6371506;22;20456;-96
2023/01/07 04:10:57;;;;;;;25.98;20.20;;;10.30;99.90;;;;;;6369646;22;20062;-94
2023/01/07 04:13:23;;;;;;;22.17;19.65;;;10.20;99.90;;;;;;6369715;22;20029;-95
2023/01/07 04:15:48;;;;;;;24.05;20.00;;;10.40;99.90;;;;;;6370055;22;20010;-94
2023/01/07 04:18:14;;;;;;;22.92;20.38;;;10.30;99.90;;;;;;6370878;22;20020;-95
2023/01/07 04:20:43;;;;;;;22.65;20.17;;;10.30;99.90;;;;;;6370425;22;20311;-94
2023/01/07 04:23:09;;;;;;;26.42;20.27;;;10.20;99.90;;;;;;6370225;22;20048;-94
2023/01/07 04:25:34;;;;;;;28.08;21.08;;;10.30;99.90;;;;;;6370797;22;20010;-95
2023/01/07 04:28:00;;;;;;;26.25;20.88;;;10.20;99.90;;;;;;6368879;22;20018;-94
2023/01/07 04:30:26;;;;;;;27.17;21.13;;;10.30;99.90;;;;;;6370666;22;20083;-95
2023/01/07 04:32:51;;;;;;;27.55;20.15;;;10.20;99.90;;;;;;6369151;22;20021;-94
2023/01/07 04:35:17;;;;;;;25.27;20.35;;;10.30;99.90;;;;;;6370107;22;20097;-93
2023/01/07 04:37:43;;;;;;;24.17;19.98;;;10.20;99.90;;;;;;6370551;22;20049;-95
2023/01/07 04:40:09;;;;;;;24.67;19.27;;;10.20;99.90;;;;;;6369962;22;20009;-94
2023/01/07 04:42:35;;;;;;;23.70;19.15;;;10.20;99.90;;;;;;6369879;22;20025;-94
2023/01/07 04:45:03;;;;;;;23.95;19.48;;;10.30;99.90;;;;;;6369967;22;20037;-94
2023/01/07 04:47:29;;;;;;;26.17;18.30;;;10.10;99.90;;;;;;6369517;22;20014;-94
2023/01/07 04:49:54;;;;;;;23.98;20.13;;;10.30;99.90;;;;;;6369565;22;20135;-94
2023/01/07 04:52:20;;;;;;;25.35;19.52;;;10.30;99.90;;;;;;6370371;22;20342;-94
2023/01/07 04:54:46;;;;;;;24.65;18.92;;;10.10;99.90;;;;;;6369505;22;20017;-94
2023/01/07 04:57:11;;;;;;;26.20;19.58;;;10.20;99.90;;;;;;6370314;22;20536;-94
2023/01/07 04:59:37;;;;;;;26.73;20.30;;;10.20;99.90;;;;;;6370405;22;20017;-95
2023/01/07 05:02:03;;;;;;;23.55;19.13;;;10.10;99.90;;;;;;6369348;22;20605;-94
2023/01/07 05:04:28;;;;;;;22.38;18.95;;;10.10;99.90;;;;;;6370103;22;20438;-93
2023/01/07 05:06:54;;;;;;;25.15;19.33;;;10.20;99.90;;;;;;6370662;22;20049;-93
2023/01/07 05:09:20;;;;;;;26.75;18.95;;;10.20;99.90;;;;;;6370006;22;20066;-93
2023/01/07 05:11:46;;;;;;;23.02;19.25;;;10.10;99.90;;;;;;6369600;22;20018;-94
2023/01/07 05:14:12;;;;;;;28.25;20.15;;;10.10;99.90;;;;;;6369798;22;20013;-92
2023/01/07 05:16:41;;;;;;;25.25;18.80;;;10.10;99.90;;;;;;6369607;22;20022;-93
2023/01/07 05:19:06;;;;;;;24.38;19.13;;;10.10;99.90;;;;;;6370242;22;20036;-92
2023/01/07 05:21:32;;;;;;;25.95;19.08;;;10.10;99.90;;;;;;6370402;22;20434;-93
2023/01/07 05:24:00;;;;;;;28.50;18.67;;;10.10;99.90;;;;;;6368824;22;20463;-93
2023/01/07 05:26:26;;;;;;;24.50;17.50;;;10.00;99.90;;;;;;6370710;22;20005;-93
2023/01/07 05:28:51;;;;;;;23.80;18.42;;;10.10;99.90;;;;;;6368657;22;20331;-93
2023/01/07 05:31:19;;;;;;;23.42;17.40;;;10.10;99.90;;;;;;6369834;22;20006;-93
2023/01/07 05:33:45;;;;;;;24.65;18.10;;;10.00;99.90;;;;;;6368843;22;20010;-92
2023/01/07 05:36:11;;;;;;;23.35;16.77;;;10.10;99.90;;;;;;6369233;22;20010;-93
2023/01/07 05:38:37;;;;;;;21.67;16.20;;;10.00;99.90;;;;;;6370093;22;20018;-93
2023/01/07 05:41:03;;;;;;;23.83;17.05;;;9.90;99.90;;;;;;6369425;22;20014;-93
2023/01/07 05:43:30;;;;;;;23.42;16.05;;;10.00;99.90;;;;;;6369082;22;20017;-93
2023/01/07 05:45:57;;;;;;;23.33;16.77;;;10.00;99.90;;;;;;6369170;22;20039;-93
2023/01/07 05:48:23;;;;;;;21.35;15.57;;;10.00;99.90;;;;;;6371773;22;20037;-92
2023/01/07 05:50:49;;;;;;;23.08;15.75;;;9.90;99.90;;;;;;6373441;22;20441;-93
2023/01/07 05:53:15;;;;;;;18.00;14.63;;;10.00;99.90;;;;;;6375124;22;20024;-93
2023/01/07 05:55:41;;;;;;;19.90;14.88;;;10.00;99.90;;;;;;6375101;22;20009;-94
2023/01/07 05:58:09;;;;;;;22.20;14.52;;;10.00;99.90;;;;;;6373488;22;20147;-93
2023/01/07 06:00:35;;;;;;;20.90;13.75;;;10.00;99.90;;;;;;6374780;22;20093;-92
2023/01/07 06:03:02;;;;;;;17.55;14.10;;;10.00;99.90;;;;;;6374282;22;20136;-93
2023/01/07 06:05:28;;;;;;;19.05;14.13;;;10.00;99.90;;;;;;6374134;22;20088;-94
2023/01/07 06:07:54;;;;;;;20.15;13.50;;;9.90;99.90;;;;;;6374255;22;20074;-93
2023/01/07 06:10:20;;;;;;;19.10;14.13;;;10.10;99.90;;;;;;6374932;22;20056;-93
2023/01/07 06:12:46;;;;;;;20.85;12.82;;;9.90;99.90;;;;;;6373519;22;20017;-94
2023/01/07 06:15:14;;;;;;;20.50;14.00;;;10.00;99.90;;;;;;6374045;22;20009;-93
2023/01/07 06:17:39;;;;;;;16.98;12.65;;;9.90;99.90;;;;;;6374219;22;20467;-93
2023/01/07 06:20:08;;;;;;;16.08;12.30;;;10.00;99.90;;;;;;6373114;22;20018;-94
2023/01/07 06:22:35;;;;;;;19.70;12.52;;;9.90;99.90;;;;;;6375073;22;20059;-93
2023/01/07 06:25:01;;;;;;;19.90;13.07;;;9.90;99.90;;;;;;6374716;22;20016;-93
2023/01/07 06:27:26;;;;;;;18.67;11.77;;;9.90;99.90;;;;;;6373614;22;20100;-94
2023/01/07 06:29:52;;;;;;;14.63;11.80;;;9.90;99.90;;;;;;6373907;22;20051;-93
2023/01/07 06:32:18;;;;;;;16.35;11.43;;;9.90;99.90;;;;;;6373719;22;20024;-94
2023/01/07 06:34:43;;;;;;;17.90;12.52;;;9.90;99.90;;;;;;6374439;22;20010;-93
2023/01/07 06:37:09;;;;;;;18.35;11.88;;;9.90;99.90;;;;;;6374830;22;20021;-94
2023/01/07 06:39:35;;;;;;;19.48;12.02;;;9.70;99.90;;;;;;6373716;22;20013;-93
2023/01/07 06:42:03;;;;;;;16.23;11.48;;;10.00;99.90;;;;;;6373539;22;20020;-93
2023/01/07 06:44:29;;;;;;;19.23;11.27;;;9.90;99.90;;;;;;6373949;22;20013;-93
2023/01/07 06:46:57;;;;;;;17.23;11.18;;;9.90;99.90;;;;;;6373538;22;20441;-92
2023/01/07 06:49:22;;;;;;;18.02;11.40;;;9.90;99.90;;;;;;6374346;22;20116;-92
2023/01/07 06:51:50;;;;;;;15.30;10.68;;;9.80;99.90;;;;;;6374065;22;20021;-94
2023/01/07 06:54:16;;;;;;;14.32;10.55;;;9.90;99.90;;;;;;6373721;22;20383;-94
2023/01/07 06:56:42;;;;;;;14.10;10.82;;;9.80;99.90;;;;;;6374245;22;20018;-92
2023/01/07 06:59:10;;;;;;;17.80;10.70;;;9.90;99.90;;;;;;6373771;22;20479;-92
2023/01/07 07:01:36;;;;;;;15.73;10.98;;;9.80;99.90;;;;;;6373602;22;20085;-92
2023/01/07 07:04:01;;;;;;;18.10;10.38;;;9.70;99.90;;;;;;6373932;22;20488;-92
2023/01/07 07:06:30;;;;;;;16.65;9.65;;;9.90;99.90;;;;;;6374262;22;20058;-92
2023/01/07 07:08:55;;;;;;;15.68;9.88;;;9.80;99.90;;;;;;6373504;22;20013;-92
2023/01/07 07:11:23;;;;;;;16.70;10.63;;;9.70;99.90;;;;;;6374793;22;20433;-91
2023/01/07 07:13:49;;;;;;;14.48;10.43;;;9.80;99.90;;;;;;6372966;22;20413;-91
2023/01/07 07:16:15;;;;;;;13.60;8.98;;;9.80;99.90;;;;;;6373996;22;20021;-92
2023/01/07 07:18:40;;;;;;;12.82;9.38;;;9.90;99.90;;;;;;6374268;22;20071;-91
2023/01/07 07:21:06;;;;;;;12.50;9.93;;;9.80;99.90;;;;;;6374408;22;20009;-91
2023/01/07 07:23:32;;;;;;;13.65;9.80;;;9.80;99.90;;;;;;6373374;22;20018;-91
2023/01/07 07:25:58;;;;;;;14.68;10.00;;;9.80;99.90;;;;;;6373724;22;20014;-92
2023/01/07 07:28:23;;;;;;;16.35;10.50;;;9.90;99.90;;;;;;6374244;22;20028;-91
2023/01/07 07:30:49;;;;;;;16.52;9.93;;;9.90;99.90;;;;;;6372529;22;20010;-91
2023/01/07 07:33:17;;;;;;;15.68;8.73;;;9.90;99.90;;;;;;6374409;22;20092;-91
2023/01/07 07:35:44;;;;;;;15.77;8.98;;;9.90;99.90;;;;;;6372795;22;20061;-91
2023/01/07 07:38:09;;;;;;;14.65;9.30;;;9.80;99.90;;;;;;6374416;22;20028;-91
2023/01/07 07:40:38;;;;;;;11.52;8.30;;;9.90;99.90;;;;;;6374063;22;20013;-91
2023/01/07 07:43:04;;;;;;;14.20;8.27;;;9.90;99.90;;;;;;6371147;22;20021;-92
2023/01/07 07:45:30;;;;;;;13.05;8.35;;;9.90;99.90;;;;;;6373889;22;20027;-91
2023/01/07 07:47:57;;;;;;;13.27;8.48;;;9.90;99.90;;;;;;6373400;22;20013;-92
2023/01/07 07:50:44;;;;;;;12.27;8.77;;;9.90;99.90;;;;;;6374820;22;20017;-90
2023/01/07 07:53:10;;;;;;;12.20;8.00;;;9.90;99.90;;;;;;6377478;22;20025;-92
2023/01/07 07:55:37;;;;;;;14.60;7.10;;;9.90;99.90;;;;;;6375877;22;20048;-93
2023/01/07 07:58:02;;;;;;;14.90;7.97;;;9.80;99.90;;;;;;6375310;22;20547;-92
2023/01/07 08:00:28;;;;;;;13.43;7.75;;;9.80;99.90;;;;;;6375772;22;20084;-92
2023/01/07 08:02:58;;;;;;;14.13;8.13;;;9.80;99.90;;;;;;6376400;22;20022;-96
2023/01/07 08:05:27;;;;;;;11.52;7.20;;;9.90;99.90;;;;;;6378229;22;20034;-96
2023/01/07 08:07:53;;;;;;;13.63;7.25;;;9.80;99.90;;;;;;6376170;22;20016;-93
2023/01/07 08:10:22;;;;;;;18.10;7.65;;;9.80;99.90;;;;;;6376514;22;20014;-94
2023/01/07 08:12:50;;;;;;;12.10;7.15;;;9.80;99.90;;;;;;6376913;22;20089;-94
2023/01/07 08:15:17;;;;;;;10.52;7.07;;;9.70;99.90;;;;;;6376337;22;20045;-94
2023/01/07 08:17:43;;;;;;;13.18;6.78;;;9.70;99.90;;;;;;6375023;22;20017;-96
2023/01/07 08:20:10;;;;;;;10.23;6.95;;;9.70;99.90;;;;;;6374913;22;20089;-94
2023/01/07 08:22:36;;;;;;;10.57;6.63;;;9.60;99.90;;;;;;6375399;22;20060;-95
2023/01/07 08:25:02;;;;;;;8.77;6.07;;;9.60;99.90;;;;;;6374182;22;20017;-94
2023/01/07 08:27:28;;;;;;;11.57;6.53;;;9.70;99.90;;;;;;6376338;22;20024;-94
2023/01/07 08:29:55;;;;;;;12.65;6.30;;;9.80;99.90;;;;;;6375194;22;20017;-95
2023/01/07 08:32:21;;;;;;;9.90;6.20;;;9.70;99.90;;;;;;6375077;22;20051;-94
2023/01/07 08:34:49;;;;;;;10.30;6.63;;;9.60;99.90;;;;;;6374678;22;20013;-93
2023/01/07 08:37:25;;;;;;;12.77;6.20;;;9.60;99.90;;;;;;6375619;22;20037;-94
2023/01/07 08:39:53;;;;;;;9.88;5.82;;;9.50;99.90;;;;;;6374602;22;20065;-96
2023/01/07 08:42:19;;;;;;;10.73;5.82;;;9.60;99.90;;;;;;6376636;22;20017;-95
2023/01/07 08:44:44;;;;;;;7.13;5.57;;;9.60;99.90;;;;;;6375383;22;20013;-94
2023/01/07 08:47:12;;;;;;;10.93;5.90;;;9.60;99.90;;;;;;6374899;22;20021;-95
2023/01/07 08:49:38;;;;;;;10.60;5.88;;;9.60;99.90;;;;;;6375034;22;20010;-94
2023/01/07 08:52:04;;;;;;;12.95;5.47;;;9.60;99.90;;;;;;6375370;22;20021;-95
2023/01/07 08:54:30;;;;;;;9.13;5.35;;;9.70;99.90;;;;;;6374880;22;20081;-94
2023/01/07 08:56:55;;;;;;;8.32;5.53;;;9.90;99.90;;;;;;6374410;22;20429;-94
2023/01/07 08:59:23;;;;;;;9.75;5.13;;;9.50;99.90;;;;;;6375501;22;20368;-92
2023/01/07 09:01:49;;;;;;;9.40;5.20;;;9.60;99.90;;;;;;6374125;22;20013;-92
2023/01/07 09:04:15;;;;;;;8.95;5.57;;;9.70;99.90;;;;;;6377563;22;20020;-93
2023/01/07 09:06:40;;;;;;;11.80;5.47;;;9.70;99.90;;;;;;6375847;22;20013;-93
2023/01/07 09:09:16;;;;;;;7.50;4.70;;;9.70;99.90;;;;;;6374957;22;20020;-95
2023/01/07 09:11:51;;;;;;;11.65;4.47;;;9.60;99.90;;;;;;6378775;22;20017;-92
2023/01/07 09:14:16;;;;;;;11.27;4.82;;;9.70;99.90;;;;;;6375325;22;20046;-92
2023/01/07 09:16:44;;;;;;;8.43;4.18;;;9.70;99.90;;;;;;6374939;22;20036;-93
2023/01/07 09:19:12;;;;;;;9.50;4.70;;;9.60;99.90;;;;;;6374832;22;20013;-93
2023/01/07 09:21:40;;;;;;;5.93;4.38;;;9.60;99.90;;;;;;6374327;22;20044;-91
2023/01/07 09:24:06;;;;;;;7.63;4.80;;;9.50;99.90;;;;;;6375953;22;20025;-92
2023/01/07 09:26:32;;;;;;;11.45;5.30;;;9.50;99.90;;;;;;6376472;22;20009;-92
2023/01/07 09:28:58;;;;;;;9.15;4.05;;;9.60;99.90;;;;;;6376645;22;20009;-94
2023/01/07 09:31:23;;;;;;;8.70;4.38;;;9.60;99.90;;;;;;6377413;22;20033;-93
2023/01/07 09:33:49;;;;;;;8.40;4.30;;;9.60;99.90;;;;;;6376232;22;20341;-94
2023/01/07 09:36:15;;;;;;;6.72;3.95;;;9.60;99.90;;;;;;6377088;22;20020;-94
2023/01/07 09:38:41;;;;;;;8.13;4.30;;;9.60;99.90;;;;;;6387457;22;20013;-93
2023/01/07 09:41:24;;;;;;;7.90;4.57;;;9.60;99.90;;;;;;6376463;22;20085;-93
2023/01/07 09:43:53;;;;;;;;;;;9.60;99.90;;;;;;6376852;22;20078;-92
2023/01/07 09:46:19;;;;;;;11.25;4.05;;;9.60;99.90;;;;;;6377435;22;19917;-94
2023/01/07 09:48:50;;;;;;;9.90;3.90;;;9.60;99.90;;;;;;6378174;22;20010;-93
2023/01/07 09:51:26;;;;;;;6.20;3.80;;;9.60;99.90;;;;;;6375823;22;20019;-94
2023/01/07 09:53:55;;;;;;;6.88;4.15;;;9.70;99.90;;;;;;6375072;22;20473;-94
2023/01/07 09:56:24;;;;;;;6.85;3.78;;;9.70;99.90;;;;;;6374712;22;20088;-94
2023/01/07 09:58:50;;;;;;;7.65;3.45;;;9.70;99.90;;;;;;6373495;22;20021;-95
2023/01/07 10:01:35;;;;;;;6.07;3.70;;;9.70;99.90;;;;;;6374981;22;20013;-93
2023/01/07 10:04:14;;;;;;;7.22;3.45;;;9.60;99.90;;;;;;6373318;22;20104;-94
2023/01/07 10:06:57;;;;;;;6.00;3.55;;;9.60;99.90;;;;;;6376096;22;20018;-96
2023/01/07 10:09:34;;;;;;;6.65;3.53;;;9.60;99.90;;;;;;6375043;22;20020;-95
2023/01/07 10:12:06;;;;;;;7.18;4.05;;;9.70;99.90;;;;;;6377020;22;20078;-93
2023/01/07 10:14:54;;;;;;;8.48;3.63;;;9.60;99.90;;;;;;6374324;22;20013;-96
2023/01/07 10:17:24;;;;;;;6.72;3.70;;;9.70;99.90;;;;;;6374252;22;20029;-95
2023/01/07 10:20:08;;;;;;;6.80;3.63;;;9.60;99.90;;;;;;6374594;22;20017;-95
2023/01/07 10:22:37;;;;;;;6.20;3.17;;;9.30;99.90;;;;;;6376052;22;20014;-96
2023/01/07 10:25:16;;;;;;;9.02;3.45;;;9.60;99.90;;;;;;6374868;22;20123;-91
2023/01/07 10:27:45;;;;;;;7.95;3.33;;;9.70;99.90;;;;;;6374024;22;20334;-92
2023/01/07 10:30:17;;;;;;;6.45;3.80;;;9.70;99.90;;;;;;6374543;22;20460;-94
2023/01/07 10:32:49;;;;;;;7.60;3.15;;;9.70;99.90;;;;;;6373997;22;20024;-94
2023/01/07 10:35:20;;;;;;;6.88;3.20;;;9.70;99.90;;;;;;6375519;22;20078;-93
2023/01/07 10:37:45;;;;;;;4.97;2.90;;;9.80;99.90;;;;;;6374393;22;20413;-94
2023/01/07 10:40:11;;;;;;;7.05;2.85;;;9.90;99.90;;;;;;6374652;22;20028;-94
2023/01/07 10:42:52;;;;;;;5.55;2.70;;;9.90;99.90;;;;;;6374497;22;20433;-94
2023/01/07 10:45:28;;;;;;;6.78;2.90;;;9.90;99.90;;;;;;6376319;22;20013;-94
2023/01/07 10:48:21;;;;;;;8.63;2.78;;;9.90;99.90;;;;;;6374632;22;20438;-93
2023/01/07 10:50:56;;;;;;;10.32;3.20;;;10.00;99.90;;;;;;6374081;22;20021;-93
2023/01/07 10:53:53;;;;;;;5.15;2.78;;;10.10;99.90;;;;;;6384879;22;20040;-92
2023/01/07 10:56:33;;;;;;;5.03;2.70;;;10.10;99.90;;;;;;6377246;22;20024;-93
2023/01/07 10:58:59;;;;;;;6.55;2.78;;;10.10;99.90;;;;;;6383446;22;20024;-92
2023/01/07 11:01:30;;;;;;;5.07;3.00;;;10.20;99.90;;;;;;6376544;22;20033;-93
2023/01/07 11:03:58;;;;;;;5.60;2.90;;;10.20;99.90;;;;;;6374908;22;20013;-92
2023/01/07 11:06:48;;;;;;;5.50;2.58;;;10.20;99.90;;;;;;6376436;22;20041;-92
2023/01/07 11:09:19;;;;;;;6.80;2.67;;;10.30;99.90;;;;;;6374874;22;20520;-92
2023/01/07 11:11:47;;;;;;;6.28;2.72;;;10.30;99.90;;;;;;6374724;22;20017;-91
2023/01/07 11:14:23;;;;;;;4.47;2.30;;;10.30;99.90;;;;;;6373508;22;20013;-92
2023/01/07 11:16:58;;;;;;;7.55;2.50;;;10.30;99.90;;;;;;6376677;22;20010;-92
2023/01/07 11:19:42;;;;;;;6.53;2.67;;;10.30;99.90;;;;;;6375482;22;20030;-92
2023/01/07 11:22:24;;;;;;;7.55;2.70;;;10.30;99.90;;;;;;6376238;22;20050;-92
2023/01/07 11:24:50;;;;;;;9.25;1.90;;;10.40;99.90;;;;;;6376879;22;20017;-92
2023/01/07 11:27:29;;;;;;;5.47;2.20;;;10.40;99.90;;;;;;6376584;22;20013;-92
2023/01/07 11:30:01;;;;;;;4.95;2.40;;;10.50;99.90;;;;;;6375015;22;20021;-96
2023/01/07 11:32:31;;;;;;;6.90;2.00;;;10.50;99.90;;;;;;6376711;22;20060;-94
2023/01/07 11:35:03;;;;;;;5.82;2.00;;;10.60;99.90;;;;;;6375335;22;20261;-94
2023/01/07 11:37:49;;;;;;;4.82;2.22;;;10.70;99.90;;;;;;6378532;22;20044;-94
2023/01/07 11:40:22;;;;;;;4.63;1.98;;;10.70;99.90;;;;;;6404016;22;20017;-93
2023/01/07 11:42:55;;;;;;;3.47;1.98;;;10.80;99.90;;;;;;6377442;22;20017;-94
2023/01/07 11:45:29;;;;;;;3.13;1.90;;;10.80;99.90;;;;;;6378185;22;20064;-93
2023/01/07 11:51:09;;;;;;;7.10;1.60;;;10.90;99.90;;;;;;6372413;22;20018;-94
2023/01/07 11:53:38;;;;;;;5.25;1.48;;;10.90;99.90;;;;;;6347617;22;20014;-91
2023/01/07 11:56:09;;;;;;;3.58;1.73;;;10.80;99.90;;;;;;6344711;22;20014;-92
2023/01/07 11:58:43;;;;;;;4.80;1.75;;;10.90;99.90;;;;;;6346319;22;20010;-91
2023/01/07 12:01:14;;;;;;;4.50;1.67;;;10.80;99.90;;;;;;6346466;22;20014;-93
2023/01/07 12:04:00;;;;;;;2.80;1.50;;;10.80;99.90;;;;;;6346087;22;20078;-93
2023/01/07 12:06:30;;;;;;;2.60;1.40;;;10.70;99.90;;;;;;6345834;22;20043;-92
2023/01/07 12:09:12;;;;;;;4.18;1.70;;;10.70;99.90;;;;;;6345653;22;20022;-91
2023/01/07 12:11:40;;;;;;;3.35;1.33;;;10.70;99.90;;;;;;6345852;22;20017;-90
2023/01/07 12:14:28;;;;;;;3.13;1.58;;;10.70;99.90;;;;;;6345092;22;20025;-93
2023/01/07 12:17:05;;;;;;;3.75;1.58;;;10.70;99.90;;;;;;6344934;22;20014;-92
2023/01/07 12:19:53;;;;;;;3.22;1.50;;;10.70;99.90;;;;;;6346100;22;20021;-93
2023/01/07 12:22:39;;;;;;;3.22;1.50;;;10.70;99.90;;;;;;6346345;22;20013;-95
2023/01/07 12:25:19;;;;;;;4.07;1.67;;;10.70;99.90;;;;;;6352046;22;20017;-93
2023/01/07 12:27:52;;;;;;;4.10;1.60;;;10.70;99.90;;;;;;6345408;22;20021;-96
2023/01/07 12:30:42;;;;;;;3.33;1.42;;;10.70;99.90;;;;;;6347722;22;20010;-94
2023/01/07 12:36:33;;;;;;;4.38;1.63;;;10.70;99.90;;;;;;6149645;23;20033;-92
2023/01/07 12:39:04;;;;;;;3.45;1.17;;;10.70;99.90;;;;;;6097961;23;20019;-91
2023/01/07 12:41:35;;;;;;;3.60;1.42;;;10.80;99.90;;;;;;6098787;23;20075;-91
2023/01/07 12:44:10;;;;;;;2.97;1.30;;;10.80;99.90;;;;;;6098270;23;20105;-92
2023/01/07 12:46:43;;;;;;;2.28;1.10;;;10.90;99.90;;;;;;6099303;23;20018;-88
2023/01/07 12:49:14;;;;;;;2.15;1.35;;;10.80;99.90;;;;;;6098421;23;20028;-90
2023/01/07 12:51:48;;;;;;;2.47;1.25;;;10.90;99.90;;;;;;6099002;23;20649;-90
2023/01/07 12:54:23;;;;;;;4.05;1.30;;;10.90;99.90;;;;;;6098124;23;20018;-91
2023/01/07 12:56:52;;;;;;;3.97;1.00;;;10.80;99.90;;;;;;6096708;23;20053;-87
2023/01/07 12:59:26;;;;;;;4.05;1.15;;;10.90;99.90;;;;;;6097010;23;20536;-90
2023/01/07 13:02:05;;;;;;;2.00;1.15;;;10.90;99.90;;;;;;6096365;23;20021;-89